Torino / Aeritalia Airport LIMA

Flugplatz Daten

Name: Torino / Aeritalia Airport

Ident: LIMA

Lat: 45,08639908

Long: 7,60337019

Platzhöhe: 943 ft

IataCode:

City: Torino

Metar

2021/08/05 12:50
LIMA 051250Z 15003KT 040V200 CAVOK 27/13 Q1007

Taf

Gewünschte Webcam nicht vorhanden? Dann fügen Sie eine hinzu. Sie wird dann so schnell wie möglich freigeschaltet
Url: Title: